Hobart, Oklahoma
Current Conditions -  °F | °C
As of 9:31 AM on Thursday 23 Oct 2014 (Local Time) from KHBR Reporting Station
Haze Haze  
Wind Chill: 63°   Ceiling: Unl
Heat Index: 63°   Visibility: 3mi
Dew Point: 61°   Wind: 10mph
Humidity: 93%   Direction: 180°S
Pressure: 30.13"   Gusts: NA
Location:  35.03°N, 99.09°W
Report Text: KHBR 231431Z AUTO 18009KT 3SM BR CLR 17/16 A3013 RMK AO2 T01720161
Loading
Personal Weather Stations






























Interactive Weather Map
Tropical Storm Tracking
New forecast layout! Learn more

10-Day Weather Forecast

Advertisements
Track Severe Weather on mobile